Time;durP1;ratioP1;P1;durP2;ratioP2;P2;SDS_P1;SDS_P2;PMS_P1;PMS_P2;Temp;Humidity;BMP_temperature;BMP_pressure;BME280_temperature;BME280_humidity;BME280_pressure;Samples;Min_cycle;Max_cycle;Signal;HPM_P1;HPM_P2
2022/07/15 00:00:24;;;;;;;11.50;6.13;;;;;;;21.16;72.43;92739.38;4737515;30;20499;-76
2022/07/15 00:02:49;;;;;;;9.77;6.40;;;;;;;21.14;72.36;92738.97;4768057;30;20055;-76
2022/07/15 00:05:15;;;;;;;11.38;6.10;;;;;;;21.14;72.54;92746.16;4751648;30;20034;-76
2022/07/15 00:07:40;;;;;;;8.52;6.15;;;;;;;21.14;72.17;92738.19;4753006;30;20051;-76
2022/07/15 00:10:18;;;;;;;9.50;6.30;;;;;;;21.14;72.41;92738.19;4768131;30;20044;-76
2022/07/15 00:12:49;;;;;;;11.75;6.50;;;;;;;21.13;71.96;92734.00;4768184;30;20411;-76
2022/07/15 00:15:17;;;;;;;10.32;6.10;;;;;;;21.12;71.80;92729.78;4751797;30;20036;-76
2022/07/15 00:17:43;;;;;;;9.32;6.28;;;;;;;21.11;71.86;92728.25;4768879;30;20141;-76
2022/07/15 00:20:10;;;;;;;10.23;6.30;;;;;;;21.09;71.95;92723.25;4774890;29;20134;-76
2022/07/15 00:22:36;;;;;;;9.50;6.40;;;;;;;21.06;72.11;92731.19;4785936;30;20062;-76
2022/07/15 00:25:03;;;;;;;8.85;6.28;;;;;;;21.02;72.35;92731.09;4785824;30;20043;-76
2022/07/15 00:27:28;;;;;;;11.70;6.57;;;;;;;21.00;72.53;92733.31;4768386;30;20035;-76
2022/07/15 00:29:54;;;;;;;11.10;6.30;;;;;;;20.96;72.65;92730.59;4769361;30;20043;-76
2022/07/15 00:32:20;;;;;;;9.60;6.25;;;;;;;20.93;73.02;92725.16;4768155;30;20110;-76
2022/07/15 00:34:45;;;;;;;9.32;6.63;;;;;;;20.90;72.86;92721.31;4783970;30;20051;-76
2022/07/15 00:37:11;;;;;;;9.40;6.75;;;;;;;20.91;73.51;92728.16;4769774;30;20040;-76
2022/07/15 00:39:37;;;;;;;11.25;6.40;;;;;;;20.90;73.45;92725.88;4784158;30;20035;-76
2022/07/15 00:42:03;;;;;;;8.60;6.55;;;;;;;20.91;73.13;92720.19;4785714;30;20039;-76
2022/07/15 00:44:28;;;;;;;11.23;6.47;;;;;;;20.91;73.50;92717.53;4786156;29;20062;-76
2022/07/15 00:46:55;;;;;;;9.10;6.68;;;;;;;20.91;73.62;92717.53;4758334;30;20140;-76
2022/07/15 00:49:21;;;;;;;10.20;7.07;;;;;;;20.91;73.58;92719.41;4769703;30;20035;-76
2022/07/15 00:51:51;;;;;;;9.52;6.70;;;;;;;20.89;73.76;92708.34;4755388;30;20040;-76
2022/07/15 00:54:22;;;;;;;11.70;6.60;;;;;;;20.89;73.30;92709.09;4771182;30;20118;-76
2022/07/15 00:56:55;;;;;;;9.73;6.47;;;;;;;20.88;73.06;92707.56;4755306;30;20068;-76
2022/07/15 00:59:23;;;;;;;11.07;6.70;;;;;;;20.85;73.96;92708.28;4772060;30;20047;-76
2022/07/15 01:01:50;;;;;;;8.80;6.82;;;;;;;20.82;73.63;92703.63;4771118;30;20031;-76
2022/07/15 01:04:18;;;;;;;11.68;6.72;;;;;;;20.79;73.98;92701.66;4756721;30;20043;-76
2022/07/15 01:06:44;;;;;;;10.63;7.13;;;;;;;20.76;74.07;92699.66;4772696;30;20038;-76
2022/07/15 01:09:09;;;;;;;11.07;6.97;;;;;;;20.74;74.09;92697.38;4772711;30;20042;-76
2022/07/15 01:11:35;;;;;;;10.68;7.18;;;;;;;20.72;73.88;92698.84;4740918;30;20057;-76
2022/07/15 01:14:02;;;;;;;12.30;6.32;;;;;;;20.68;74.32;92698.75;4769465;30;20044;-76
2022/07/15 01:16:28;;;;;;;8.90;6.13;;;;;;;20.66;74.48;92695.66;4754811;30;20047;-76
2022/07/15 01:18:54;;;;;;;8.07;6.30;;;;;;;20.63;74.40;92687.59;4754800;30;20055;-76
2022/07/15 01:21:24;;;;;;;11.07;7.10;;;;;;;20.61;73.73;92687.19;4757050;30;20051;-76
2022/07/15 01:23:51;;;;;;;13.40;7.15;;;;;;;20.60;74.25;92686.38;4758001;30;20039;-76
2022/07/15 01:26:37;;;;;;;7.68;6.55;;;;;;;20.57;74.42;92684.41;4759743;30;20051;-76
2022/07/15 01:29:03;;;;;;;12.35;6.85;;;;;;;20.56;74.80;92681.00;4772457;30;20054;-76
2022/07/15 01:31:29;;;;;;;9.70;7.22;;;;;;;20.52;75.32;92679.34;4770906;30;20398;-76
2022/07/15 01:33:55;;;;;;;14.43;7.20;;;;;;;20.49;75.29;92680.78;4771014;30;20423;-76
2022/07/15 01:36:22;;;;;;;13.38;7.40;;;;;;;20.43;75.27;92676.84;4772241;30;20067;-76
2022/07/15 01:38:56;;;;;;;8.88;6.80;;;;;;;20.41;75.38;92667.66;4772481;30;20122;-76
2022/07/15 01:41:23;;;;;;;9.93;6.88;;;;;;;20.40;75.62;92674.88;4760329;30;20534;-76
2022/07/15 01:43:49;;;;;;;14.65;7.55;;;;;;;20.39;75.73;92663.44;4754392;30;20040;-76
2022/07/15 01:46:15;;;;;;;8.48;6.68;;;;;;;20.38;75.94;92658.50;4754449;30;20039;-76
2022/07/15 01:51:54;;;;;;;12.25;7.25;;;;;;;20.37;75.72;92660.34;4758468;30;20051;-76
2022/07/15 01:54:24;;;;;;;10.02;7.18;;;;;;;20.36;75.77;92652.75;4754045;30;20439;-76
2022/07/15 01:56:51;;;;;;;9.98;7.28;;;;;;;20.36;76.08;92650.09;4753646;30;20048;-76
2022/07/15 01:59:18;;;;;;;10.18;7.40;;;;;;;20.36;75.94;92655.41;4754151;30;20038;-76
2022/07/15 02:01:44;;;;;;;11.82;7.60;;;;;;;20.35;75.85;92649.31;4755158;30;20031;-76
2022/07/15 02:04:15;;;;;;;13.15;7.03;;;;;;;20.33;75.70;92648.09;4754174;30;20460;-76
2022/07/15 02:06:41;;;;;;;13.10;6.95;;;;;;;20.33;75.22;92646.22;4783414;30;20131;-76
2022/07/15 02:09:10;;;;;;;13.40;7.00;;;;;;;20.32;75.10;92643.91;4753950;30;20050;-76
2022/07/15 02:11:40;;;;;;;10.80;6.88;;;;;;;20.33;74.88;92634.81;4768182;30;20502;-76
2022/07/15 02:14:06;;;;;;;9.02;6.55;;;;;;;20.32;75.21;92634.03;4754886;30;20335;-76
2022/07/15 02:16:33;;;;;;;9.20;7.28;;;;;;;20.32;74.77;92633.28;4753616;30;20117;-76
2022/07/15 02:19:02;;;;;;;8.35;6.70;;;;;;;20.31;74.99;92637.03;4753880;30;20043;-76
2022/07/15 02:21:28;;;;;;;9.38;6.88;;;;;;;20.26;75.03;92629.31;4753810;30;20434;-76
2022/07/15 02:23:55;;;;;;;12.77;6.85;;;;;;;20.26;75.43;92624.75;4778316;30;20491;-76
2022/07/15 02:26:21;;;;;;;8.68;6.78;;;;;;;20.22;75.52;92629.25;4769622;30;20384;-76
2022/07/15 02:28:47;;;;;;;10.93;6.85;;;;;;;20.20;75.51;92628.81;4754272;30;20100;-76
2022/07/15 02:31:13;;;;;;;14.57;6.85;;;;;;;20.17;75.53;92627.63;4753465;30;20047;-76
2022/07/15 02:33:39;;;;;;;11.63;7.55;;;;;;;20.16;75.76;92626.06;4768965;30;20062;-76
2022/07/15 02:36:09;;;;;;;10.05;7.07;;;;;;;20.16;76.04;92631.38;4756845;30;20058;-76
2022/07/15 02:38:35;;;;;;;8.50;7.10;;;;;;;20.14;76.06;92625.63;4787543;30;20043;-76
2022/07/15 02:41:02;;;;;;;10.05;7.13;;;;;;;20.09;76.05;92623.22;4771269;30;20096;-76
2022/07/15 02:43:29;;;;;;;8.95;7.40;;;;;;;20.12;76.33;92624.44;4762005;30;20129;-76
2022/07/15 02:45:55;;;;;;;11.45;7.70;;;;;;;20.10;76.35;92619.44;4753237;30;20052;-76
2022/07/15 02:48:21;;;;;;;15.35;7.85;;;;;;;20.10;76.67;92619.44;4738621;30;20039;-76
2022/07/15 02:50:49;;;;;;;10.32;7.70;;;;;;;20.09;76.79;92620.56;4738474;30;20050;-75
2022/07/15 02:53:18;;;;;;;11.02;7.70;;;;;;;20.07;76.59;92620.13;4752413;30;20411;-76
2022/07/15 02:55:44;;;;;;;8.98;7.03;;;;;;;20.05;76.82;92617.06;4753957;30;20415;-76
2022/07/15 02:58:10;;;;;;;8.70;7.18;;;;;;;20.04;76.46;92622.69;4753124;30;20066;-76
2022/07/15 03:00:38;;;;;;;9.55;7.57;;;;;;;20.01;76.61;92613.53;4752852;30;20126;-76
2022/07/15 03:03:03;;;;;;;12.63;6.88;;;;;;;19.99;76.66;92613.09;4752750;30;20050;-75
2022/07/15 03:05:31;;;;;;;11.98;7.72;;;;;;;19.99;76.88;92609.66;4763783;30;21625;-76
2022/07/15 03:07:56;;;;;;;11.38;7.88;;;;;;;19.95;77.04;92621.00;4770747;30;20468;-76
2022/07/15 03:10:23;;;;;;;11.45;8.10;;;;;;;19.93;77.59;92611.81;4770632;30;20514;-76
2022/07/15 03:12:49;;;;;;;10.02;7.82;;;;;;;19.90;76.92;92610.59;4770531;30;20047;-76
2022/07/15 03:15:16;;;;;;;11.80;7.80;;;;;;;19.91;77.10;92614.81;4767484;30;20039;-76
2022/07/15 03:17:41;;;;;;;11.07;8.00;;;;;;;19.91;77.59;92608.72;4770782;30;20096;-76
2022/07/15 03:20:09;;;;;;;12.27;7.53;;;;;;;19.90;77.46;92612.47;4786577;29;20043;-76
2022/07/15 03:22:37;;;;;;;8.43;7.45;;;;;;;19.89;77.31;92602.97;4770757;30;20047;-76
2022/07/15 03:25:04;;;;;;;11.40;7.35;;;;;;;19.89;77.20;92610.94;4765217;30;20047;-76
2022/07/15 03:27:30;;;;;;;9.48;7.63;;;;;;;19.88;77.30;92612.84;4763029;30;20138;-76
2022/07/15 03:29:56;;;;;;;8.65;7.55;;;;;;;19.87;77.23;92618.47;4741062;30;20047;-76
2022/07/15 03:32:22;;;;;;;10.38;7.60;;;;;;;19.85;77.84;92615.41;4770191;30;20065;-76
2022/07/15 03:34:49;;;;;;;11.02;7.95;;;;;;;19.85;78.26;92618.06;4760656;30;20130;-76
2022/07/15 03:37:18;;;;;;;8.88;7.65;;;;;;;19.82;78.26;92610.78;4739720;30;20047;-76
2022/07/15 03:39:45;;;;;;;10.85;8.50;;;;;;;19.78;79.00;92612.56;4752379;30;20468;-76
2022/07/15 03:42:11;;;;;;;13.10;7.90;;;;;;;19.77;78.25;92622.41;4752413;30;20044;-76
2022/07/15 03:44:40;;;;;;;10.85;7.82;;;;;;;19.71;78.80;92610.50;4767111;30;20051;-76
2022/07/15 03:47:06;;;;;;;8.98;7.70;;;;;;;19.76;78.44;92618.97;4772364;30;20044;-76
2022/07/15 03:49:31;;;;;;;12.60;8.07;;;;;;;19.76;78.20;92623.50;4753914;30;20031;-76
2022/07/15 03:51:58;;;;;;;10.23;8.23;;;;;;;19.75;78.90;92622.75;4768300;30;20044;-76
2022/07/15 03:54:25;;;;;;;9.32;7.45;;;;;;;19.75;78.49;92622.75;4766939;30;20104;-75
2022/07/15 03:56:51;;;;;;;8.80;7.68;;;;;;;19.76;78.32;92624.28;4753155;30;20035;-76
2022/07/15 03:59:22;;;;;;;10.35;7.75;;;;;;;19.78;78.20;92620.53;4752650;30;20044;-76
2022/07/15 04:01:49;;;;;;;11.38;7.93;;;;;;;19.79;78.13;92616.75;4752032;30;20044;-76
2022/07/15 04:04:15;;;;;;;11.63;7.72;;;;;;;19.79;78.09;92619.41;4768153;30;20431;-76
2022/07/15 04:06:40;;;;;;;11.20;7.80;;;;;;;19.81;77.74;92619.84;4766987;30;20533;-76
2022/07/15 04:09:07;;;;;;;14.48;8.13;;;;;;;19.83;77.96;92621.03;4762601;30;20040;-76
2022/07/15 04:11:33;;;;;;;10.30;8.20;;;;;;;19.84;78.21;92614.63;4751981;30;20456;-76
2022/07/15 04:13:59;;;;;;;11.07;8.27;;;;;;;19.86;78.55;92614.28;4766767;30;20105;-76
2022/07/15 04:16:24;;;;;;;11.23;8.27;;;;;;;19.88;78.59;92617.34;4767865;30;20062;-76
2022/07/15 04:18:52;;;;;;;10.93;7.68;;;;;;;19.89;78.34;92610.94;4760056;29;20039;-76
2022/07/15 04:21:18;;;;;;;10.07;8.10;;;;;;;19.91;78.58;92611.38;4773592;30;20514;-76
2022/07/15 04:23:44;;;;;;;10.93;8.15;;;;;;;19.94;78.14;92613.34;4758091;30;20138;-76
2022/07/15 04:26:09;;;;;;;13.23;8.25;;;;;;;19.97;78.98;92617.97;4757861;30;20555;-76
2022/07/15 04:28:35;;;;;;;14.90;8.50;;;;;;;19.98;78.95;92603.59;4758791;30;20484;-76
2022/07/15 04:31:01;;;;;;;12.45;7.95;;;;;;;19.98;79.24;92614.22;4770678;30;20075;-76
2022/07/15 04:33:35;;;;;;;10.35;8.10;;;;;;;19.98;78.94;92616.88;4761902;30;20041;-76
2022/07/15 04:36:00;;;;;;;13.30;8.43;;;;;;;20.01;78.42;92610.88;4791614;30;20573;-76
2022/07/15 04:38:26;;;;;;;9.18;7.75;;;;;;;20.03;78.32;92611.31;4774277;30;20104;-76
2022/07/15 04:40:54;;;;;;;10.35;7.93;;;;;;;20.06;78.43;92613.28;4766526;30;20043;-76
2022/07/15 04:43:20;;;;;;;11.35;8.05;;;;;;;20.08;78.45;92613.69;4761663;30;20055;-76
2022/07/15 04:45:46;;;;;;;14.00;8.43;;;;;;;20.13;78.52;92610.81;4757479;30;20499;-76
2022/07/15 04:51:00;;;;;;;11.70;8.18;;;;;;;20.22;78.57;92613.31;4779645;29;20043;-76
2022/07/15 04:53:26;;;;;;;11.05;8.52;;;;;;;20.28;78.61;92611.16;4754273;30;20140;-75
2022/07/15 04:55:52;;;;;;;10.95;8.32;;;;;;;20.35;78.42;92612.09;4744120;30;20039;-76
2022/07/15 04:58:18;;;;;;;12.65;8.50;;;;;;;20.41;78.11;92609.19;4775924;29;20084;-76
2022/07/15 05:00:46;;;;;;;12.10;8.52;;;;;;;20.47;77.76;92602.50;4759887;30;21059;-76
2022/07/15 05:03:13;;;;;;;11.68;8.80;;;;;;;20.52;77.78;92607.53;4772903;29;20039;-77
2022/07/15 05:05:39;;;;;;;12.30;8.38;;;;;;;20.55;77.84;92604.94;4745394;30;20042;-77
2022/07/15 05:08:07;;;;;;;10.63;8.63;;;;;;;20.60;77.72;92606.59;4776178;29;20038;-78
2022/07/15 05:10:36;;;;;;;12.73;8.50;;;;;;;20.67;77.62;92604.13;4771953;29;20035;-76
2022/07/15 05:13:03;;;;;;;9.93;8.52;;;;;;;20.74;77.38;92609.59;4759607;29;20039;-78
2022/07/15 05:15:30;;;;;;;14.25;8.70;;;;;;;20.82;78.00;92613.19;4761647;30;20044;-78
2022/07/15 05:18:02;;;;;;;11.70;8.55;;;;;;;20.89;77.90;92610.66;4764818;30;20047;-78
2022/07/15 05:20:28;;;;;;;10.38;8.13;;;;;;;20.96;77.30;92612.72;4793431;29;20494;-79
2022/07/15 05:22:53;;;;;;;12.25;8.85;;;;;;;21.02;77.00;92608.66;4763016;29;20043;-79
2022/07/15 05:25:20;;;;;;;10.02;8.02;;;;;;;21.10;76.88;92617.59;4760536;30;20464;-79
2022/07/15 05:27:45;;;;;;;11.70;7.90;;;;;;;21.18;76.63;92619.25;4777173;29;20046;-79
2022/07/15 05:30:12;;;;;;;10.10;7.90;;;;;;;21.24;75.54;92617.88;4753970;30;20071;-79
2022/07/15 05:32:39;;;;;;;10.95;8.60;;;;;;;21.32;75.14;92619.56;4760081;29;20056;-79
2022/07/15 05:35:14;;;;;;;9.40;7.95;;;;;;;21.42;74.92;92621.69;4764549;30;20046;-79
2022/07/15 05:37:41;;;;;;;10.35;8.00;;;;;;;21.52;74.65;92612.38;4761290;29;20035;-79
2022/07/15 05:40:10;;;;;;;9.90;8.25;;;;;;;21.58;73.85;92618.19;4757579;30;20491;-79
2022/07/15 05:42:43;;;;;;;8.45;7.18;;;;;;;21.68;74.15;92614.94;4768536;30;20395;-78
2022/07/15 05:45:10;;;;;;;8.18;7.20;;;;;;;21.77;73.71;92618.19;4754635;30;20051;-80
2022/07/15 05:47:48;;;;;;;9.15;7.35;;;;;;;21.87;73.47;92619.50;4748121;29;20047;-77
2022/07/15 05:50:14;;;;;;;10.63;7.00;;;;;;;21.99;74.13;92623.91;4760713;29;20203;-77
2022/07/15 05:52:39;;;;;;;10.05;8.40;;;;;;;22.14;75.03;92617.69;4743335;30;20039;-76
2022/07/15 05:55:05;;;;;;;11.98;8.48;;;;;;;22.41;75.49;92617.78;4769701;29;20063;-77
2022/07/15 05:57:32;;;;;;;14.35;8.55;;;;;;;23.03;73.25;92621.03;4753556;30;20047;-81
2022/07/15 05:59:58;;;;;;;9.10;7.45;;;;;;;23.78;71.15;92617.78;4768636;29;20043;-78
2022/07/15 06:02:30;;;;;;;12.30;7.53;;;;;;;24.50;68.58;92611.25;4758751;30;20055;-77
2022/07/15 06:04:56;;;;;;;9.75;8.02;;;;;;;25.22;66.46;92623.22;4770368;30;20102;-78
2022/07/15 06:07:21;;;;;;;14.50;7.88;;;;;;;25.76;63.15;92618.88;4741215;30;20556;-78
2022/07/15 06:09:51;;;;;;;10.95;7.53;;;;;;;26.26;61.33;92623.63;4759818;30;20506;-77
2022/07/15 06:12:19;;;;;;;12.38;8.00;;;;;;;26.25;60.15;92616.69;4760344;29;20051;-78
2022/07/15 06:14:44;;;;;;;11.95;7.22;;;;;;;27.19;56.62;92617.47;4773278;29;20039;-78
2022/07/15 06:17:14;;;;;;;12.25;6.90;;;;;;;27.00;57.09;92618.66;4741115;30;20054;-78
2022/07/15 06:19:40;;;;;;;10.90;7.68;;;;;;;27.08;57.36;92619.41;4770103;29;20050;-78
2022/07/15 06:22:06;;;;;;;10.52;6.82;;;;;;;27.38;56.77;92618.97;4754958;30;20085;-77
2022/07/15 06:24:32;;;;;;;13.45;7.18;;;;;;;27.79;54.93;92618.47;4751624;29;20465;-77
2022/07/15 06:26:58;;;;;;;11.70;6.97;;;;;;;27.77;55.73;92618.09;4764865;30;20039;-78
2022/07/15 06:29:24;;;;;;;11.95;7.05;;;;;;;28.09;53.18;92611.81;4736692;30;20483;-78
2022/07/15 06:31:49;;;;;;;10.40;6.70;;;;;;;28.07;52.60;92617.56;4730796;29;20420;-77
2022/07/15 06:34:15;;;;;;;8.70;7.30;;;;;;;27.74;53.72;92608.88;4748073;30;20048;-76
2022/07/15 06:36:41;;;;;;;9.05;7.03;;;;;;;28.03;54.43;92604.16;4742345;29;20087;-77
2022/07/15 06:39:07;;;;;;;11.57;5.10;;;;;;;28.48;48.02;92595.41;4767636;29;20027;-76
2022/07/15 06:41:33;;;;;;;7.88;5.53;;;;;;;28.20;50.96;92607.13;4764762;30;20498;-76
2022/07/15 06:44:01;;;;;;;8.07;6.43;;;;;;;28.19;54.19;92600.22;4750066;30;20070;-76
2022/07/15 06:46:43;;;;;;;11.65;6.93;;;;;;;27.06;57.48;92608.28;4750927;30;20457;-79
2022/07/15 06:49:08;;;;;;;11.07;7.10;;;;;;;26.61;59.92;92610.63;4751353;30;20090;-76
2022/07/15 06:51:34;;;;;;;10.63;7.05;;;;;;;26.24;59.86;92612.50;4755488;30;20134;-76
2022/07/15 06:54:01;;;;;;;11.45;7.50;;;;;;;25.90;61.41;92612.81;4744738;30;20503;-76
2022/07/15 06:56:29;;;;;;;11.93;7.47;;;;;;;25.83;61.25;92612.00;4753676;30;20552;-76
2022/07/15 06:58:55;;;;;;;9.52;6.97;;;;;;;25.79;60.70;92616.59;4744651;30;20047;-76
2022/07/15 07:01:20;;;;;;;13.32;6.90;;;;;;;26.09;60.91;92609.00;4749119;29;20085;-76
2022/07/15 07:03:46;;;;;;;10.10;7.07;;;;;;;26.07;60.98;92607.84;4768042;30;20023;-77
2022/07/15 07:06:11;;;;;;;12.00;7.30;;;;;;;26.12;60.59;92600.22;4742928;30;20050;-77
2022/07/15 07:08:37;;;;;;;8.40;6.80;;;;;;;25.89;61.75;92611.25;4761274;30;20533;-76
2022/07/15 07:11:02;;;;;;;12.63;7.32;;;;;;;25.72;62.16;92614.66;4766884;30;20557;-77
2022/07/15 07:13:28;;;;;;;9.38;7.07;;;;;;;25.66;62.80;92611.53;4786831;30;20100;-77
2022/07/15 07:15:54;;;;;;;14.82;7.40;;;;;;;25.51;62.90;92605.38;4771575;30;20077;-76
2022/07/15 07:18:19;;;;;;;8.45;7.07;;;;;;;25.38;64.23;92606.84;4756221;30;20047;-77
2022/07/15 07:20:45;;;;;;;11.65;7.68;;;;;;;25.10;64.04;92610.09;4766050;30;20874;-76
2022/07/15 07:23:11;;;;;;;10.25;7.68;;;;;;;25.00;64.33;92603.56;4754328;30;20043;-76
2022/07/15 07:25:36;;;;;;;13.60;7.18;;;;;;;25.11;64.65;92600.94;4787212;30;20093;-77
2022/07/15 07:28:03;;;;;;;13.90;7.60;;;;;;;25.39;63.35;92600.34;4787095;30;20100;-77
2022/07/15 07:30:30;;;;;;;8.23;6.88;;;;;;;25.26;64.02;92599.88;4771450;30;20055;-77
2022/07/15 07:32:55;;;;;;;8.70;6.93;;;;;;;25.38;63.54;92604.16;4760403;30;20039;-77
2022/07/15 07:35:21;;;;;;;8.80;7.47;;;;;;;25.49;63.15;92602.31;4769091;30;20371;-77
2022/07/15 07:37:47;;;;;;;12.45;7.13;;;;;;;25.61;62.72;92605.78;4753907;30;20047;-77
2022/07/15 07:40:16;;;;;;;11.25;7.18;;;;;;;25.71;61.46;92602.38;4772608;30;20039;-76
2022/07/15 07:42:43;;;;;;;10.52;7.28;;;;;;;25.85;61.55;92605.13;4786718;30;20035;-77
2022/07/15 07:45:10;;;;;;;12.45;7.30;;;;;;;25.74;60.49;92609.66;4771810;30;20043;-78
2022/07/15 07:47:39;;;;;;;10.90;7.22;;;;;;;25.96;60.74;92605.94;4772787;30;20040;-78
2022/07/15 07:50:07;;;;;;;11.05;6.57;;;;;;;25.95;60.38;92596.34;4770582;30;20038;-78
2022/07/15 07:52:33;;;;;;;8.20;6.57;;;;;;;25.93;60.03;92605.91;4775973;30;20048;-79
2022/07/15 07:54:59;;;;;;;8.50;6.32;;;;;;;26.08;58.84;92606.72;4755555;30;20063;-78
2022/07/15 07:57:25;;;;;;;10.57;7.03;;;;;;;26.40;57.08;92601.41;4762112;30;20070;-78
2022/07/15 07:59:50;;;;;;;11.60;6.30;;;;;;;26.47;57.18;92589.91;4774608;30;20059;-78
2022/07/15 08:02:16;;;;;;;8.98;6.53;;;;;;;26.47;57.36;92601.38;4779984;30;20122;-78
2022/07/15 08:04:41;;;;;;;10.43;6.70;;;;;;;26.00;57.64;92597.13;4777302;29;20035;-78
2022/07/15 08:07:07;;;;;;;8.23;6.47;;;;;;;25.95;57.04;92588.28;4776961;30;20075;-78
2022/07/15 08:09:33;;;;;;;8.77;6.35;;;;;;;26.04;57.20;92589.84;4779455;30;20115;-78
2022/07/15 08:11:59;;;;;;;12.27;6.25;;;;;;;26.29;56.77;92589.88;4771023;30;20115;-77
2022/07/15 08:14:25;;;;;;;11.52;6.63;;;;;;;26.47;55.95;92592.59;4760309;30;20050;-76
2022/07/15 08:16:51;;;;;;;12.60;6.20;;;;;;;26.67;56.00;92593.75;4786835;30;20505;-77
2022/07/15 08:19:19;;;;;;;7.82;6.50;;;;;;;26.27;56.36;92586.81;4774888;30;20568;-77
2022/07/15 08:21:45;;;;;;;8.75;6.15;;;;;;;26.34;56.67;92586.81;4769610;30;20091;-77
2022/07/15 08:24:12;;;;;;;7.82;6.03;;;;;;;26.16;55.93;92584.91;4755401;30;20146;-78
2022/07/15 08:26:38;;;;;;;9.32;5.97;;;;;;;26.10;55.59;92582.97;4753399;30;20031;-77
2022/07/15 08:29:04;;;;;;;11.63;6.30;;;;;;;26.04;56.01;92595.22;4769187;30;20249;-77
2022/07/15 08:31:32;;;;;;;13.48;6.80;;;;;;;25.98;57.00;92591.38;4770254;30;20410;-77
2022/07/15 08:33:57;;;;;;;9.88;6.10;;;;;;;26.25;56.26;92589.88;4770197;30;20559;-77
2022/07/15 08:36:23;;;;;;;8.40;6.20;;;;;;;26.33;56.37;92596.03;4777352;30;20043;-77
2022/07/15 08:38:48;;;;;;;13.90;6.75;;;;;;;26.44;56.49;92585.31;4781711;30;20453;-76
2022/07/15 08:41:17;;;;;;;9.90;6.72;;;;;;;26.57;56.99;92589.16;4752150;30;20035;-76
2022/07/15 08:43:44;;;;;;;13.60;6.45;;;;;;;26.21;57.48;92589.13;4767243;30;20085;-76
2022/07/15 08:46:09;;;;;;;12.75;6.95;;;;;;;26.58;57.61;92580.72;4769990;30;20031;-76
2022/07/15 08:48:37;;;;;;;12.57;7.18;;;;;;;26.69;57.87;92588.78;4769528;30;20035;-76
2022/07/15 08:51:05;;;;;;;8.02;6.95;;;;;;;26.80;57.91;92588.75;4785580;30;20413;-76
2022/07/15 08:53:31;;;;;;;9.80;7.32;;;;;;;26.74;57.76;92591.06;4777809;30;20093;-76
2022/07/15 08:56:00;;;;;;;9.23;6.85;;;;;;;26.86;58.55;92584.53;4767671;30;20048;-76
2022/07/15 08:58:27;;;;;;;9.35;6.63;;;;;;;26.94;57.22;92591.44;4763455;30;20043;-76
2022/07/15 09:00:53;;;;;;;9.60;6.45;;;;;;;27.03;56.18;92582.97;4769252;30;20491;-76
2022/07/15 09:03:18;;;;;;;9.15;6.45;;;;;;;27.08;55.61;92584.50;4769369;30;20054;-76
2022/07/15 09:05:44;;;;;;;12.85;6.90;;;;;;;27.11;55.52;92587.19;4786420;29;20031;-76
2022/07/15 09:08:15;;;;;;;9.15;6.53;;;;;;;27.36;56.09;92589.81;4785157;30;20046;-77
2022/07/15 09:10:45;;;;;;;12.48;6.70;;;;;;;27.69;56.78;92584.31;4768228;30;20117;-76
2022/07/15 09:13:22;;;;;;;9.25;6.65;;;;;;;27.96;55.46;92588.03;4783798;30;20050;-76
2022/07/15 09:15:48;;;;;;;11.02;7.47;;;;;;;27.78;54.90;92588.09;4776460;30;20048;-77
2022/07/15 09:18:17;;;;;;;10.10;6.90;;;;;;;28.08;55.51;92588.75;4780049;30;20093;-75
2022/07/15 09:20:44;;;;;;;14.95;6.25;;;;;;;28.06;54.60;92591.09;4755128;30;20059;-77
2022/07/15 09:23:16;;;;;;;10.40;6.82;;;;;;;27.95;54.35;92586.53;4758644;30;20036;-76
2022/07/15 09:25:42;;;;;;;8.68;6.78;;;;;;;27.88;54.83;92600.00;4758361;30;20502;-77
2022/07/15 09:28:08;;;;;;;7.75;6.68;;;;;;;27.42;55.08;92587.50;4744742;30;20118;-77
2022/07/15 09:33:36;;;;;;;9.07;6.80;;;;;;;27.89;54.82;92593.47;4772989;30;20043;-77
2022/07/15 09:36:18;;;;;;;10.13;5.60;;;;;;;28.15;50.23;92594.88;4788317;30;20044;-77
2022/07/15 09:38:50;;;;;;;7.82;5.03;;;;;;;28.12;45.83;92590.25;4772593;30;20387;-77
2022/07/15 09:41:36;;;;;;;11.10;5.68;;;;;;;28.38;48.58;92591.63;4760946;30;20036;-76
2022/07/15 09:44:08;;;;;;;8.70;6.53;;;;;;;28.44;52.00;92591.97;4770349;30;20055;-77
2022/07/15 09:46:52;;;;;;;8.57;6.80;;;;;;;28.20;52.71;92585.59;4771280;30;20047;-77
2022/07/15 09:49:41;;;;;;;8.98;6.72;;;;;;;27.97;52.55;92584.22;4783637;30;20046;-77
2022/07/15 09:52:09;;;;;;;11.02;6.32;;;;;;;27.80;49.95;92579.66;4786902;30;20482;-76
2022/07/15 09:54:39;;;;;;;7.70;5.35;;;;;;;28.11;48.50;92586.03;4787829;30;20098;-77
2022/07/15 09:57:07;;;;;;;7.78;6.10;;;;;;;28.24;52.17;92587.13;4757826;30;20138;-77
2022/07/15 09:59:34;;;;;;;7.63;6.13;;;;;;;28.46;50.91;92584.25;4771359;30;20039;-76
2022/07/15 10:02:00;;;;;;;7.10;5.20;;;;;;;28.56;49.13;92574.63;4768962;30;20395;-79
2022/07/15 10:04:28;;;;;;;7.72;4.90;;;;;;;28.88;45.57;92579.72;4769116;30;20103;-76
2022/07/15 10:06:56;;;;;;;6.60;4.55;;;;;;;28.91;42.88;92572.75;4773065;30;20043;-77
2022/07/15 10:09:23;;;;;;;7.03;5.60;;;;;;;28.85;46.13;92570.50;4758026;29;20495;-77
2022/07/15 10:11:52;;;;;;;6.45;4.78;;;;;;;28.69;41.46;92572.19;4777977;30;20044;-77
2022/07/15 10:14:24;;;;;;;6.07;4.43;;;;;;;29.02;42.79;92565.34;4778133;30;20042;-77
2022/07/15 10:17:01;;;;;;;8.00;3.97;;;;;;;29.36;39.43;92568.09;4788276;29;20586;-77
2022/07/15 10:19:26;;;;;;;6.30;4.15;;;;;;;29.50;38.17;92569.06;4774471;30;20051;-77
2022/07/15 10:22:17;;;;;;;8.45;3.90;;;;;;;29.73;38.22;92563.81;4786520;29;20063;-77
2022/07/15 10:25:06;;;;;;;6.63;4.28;;;;;;;29.83;40.51;92560.22;4771229;30;20449;-77
2022/07/15 10:27:48;;;;;;;8.10;4.28;;;;;;;30.04;41.39;92561.88;4788430;30;20039;-77
2022/07/15 10:30:20;;;;;;;5.50;4.20;;;;;;;30.19;39.29;92553.56;4767835;30;20050;-77
2022/07/15 10:33:03;;;;;;;8.35;3.90;;;;;;;30.19;38.07;92558.97;4769363;30;20517;-76
2022/07/15 10:35:44;;;;;;;7.53;3.88;;;;;;;30.26;37.52;92554.22;4770821;30;20136;-76
2022/07/15 10:38:37;;;;;;;5.85;3.80;;;;;;;30.30;38.20;92557.66;4769854;30;20042;-77
2022/07/15 10:41:08;;;;;;;8.65;3.97;;;;;;;30.34;37.56;92554.16;4770652;30;20044;-77
2022/07/15 10:43:54;;;;;;;6.90;4.10;;;;;;;30.25;37.91;92558.09;4769759;30;20043;-76
2022/07/15 10:46:29;;;;;;;4.95;3.70;;;;;;;30.24;37.07;92553.88;4770685;30;20043;-77
2022/07/15 10:48:57;;;;;;;5.65;3.60;;;;;;;30.34;37.46;92554.91;4769476;30;20100;-76
2022/07/15 10:51:35;;;;;;;7.63;3.90;;;;;;;30.36;36.57;92557.22;4771698;30;20099;-77
2022/07/15 10:54:01;;;;;;;5.07;3.80;;;;;;;30.50;39.09;92546.16;4753613;30;20075;-77
2022/07/15 10:56:29;;;;;;;6.55;3.63;;;;;;;30.68;37.77;92546.63;4776971;30;20044;-77
2022/07/15 10:59:11;;;;;;;8.27;3.63;;;;;;;30.87;35.67;92537.09;4787841;30;20043;-77
2022/07/15 11:01:40;;;;;;;;;;;;;;;30.78;34.89;92542.25;4790694;30;20069;-78
2022/07/15 11:04:26;;;;;;;5.47;3.28;;;;;;;30.87;35.15;92541.72;4784440;30;19917;-77
2022/07/15 11:07:07;;;;;;;6.93;3.70;;;;;;;30.95;35.34;92539.66;4778703;30;20383;-77
2022/07/15 11:09:55;;;;;;;6.97;3.55;;;;;;;30.95;35.28;92534.25;4788438;30;20188;-78
2022/07/15 11:12:30;;;;;;;9.50;3.80;;;;;;;31.09;35.33;92537.44;4785208;29;20503;-77
2022/07/15 11:14:58;;;;;;;7.43;3.60;;;;;;;31.17;35.36;92526.53;4795881;29;20043;-77
2022/07/15 11:17:48;;;;;;;6.95;3.97;;;;;;;30.86;35.35;92527.44;4803711;29;20095;-78
2022/07/15 11:20:34;;;;;;;5.65;3.42;;;;;;;30.89;34.19;92531.25;4786278;29;20054;-77
2022/07/15 11:23:02;;;;;;;6.00;3.42;;;;;;;30.99;35.83;92530.31;4770852;30;20047;-78
2022/07/15 11:25:40;;;;;;;6.85;3.60;;;;;;;30.42;37.16;92528.53;4756306;30;20050;-77
2022/07/15 11:28:12;;;;;;;5.88;3.92;;;;;;;30.63;37.63;92519.34;4763425;30;20070;-77
2022/07/15 11:30:53;;;;;;;8.18;3.67;;;;;;;30.40;36.87;92520.88;4746014;30;20069;-78
2022/07/15 11:33:20;;;;;;;5.88;3.60;;;;;;;30.55;36.68;92515.22;4769498;30;20043;-78
2022/07/15 11:35:50;;;;;;;7.15;3.97;;;;;;;30.36;36.49;92509.34;4753105;30;20050;-77
2022/07/15 11:38:19;;;;;;;5.80;3.88;;;;;;;30.32;38.19;92508.66;4754172;30;20116;-77
2022/07/15 11:46:18;;;;;;;6.93;3.95;;;;;;;30.13;37.69;92502.00;4772235;30;20537;-78
2022/07/15 11:48:43;;;;;;;7.47;3.92;;;;;;;30.33;37.47;92504.78;4770141;30;20110;-78